createdAt,value
2023-02-27T00:00:37.472Z,66664.84
2023-02-27T00:03:04.617Z,66602.75
2023-02-27T00:05:31.754Z,66585.41
2023-02-27T00:07:58.991Z,66623.66
2023-02-27T00:10:26.127Z,66632.63
2023-02-27T00:12:53.427Z,66583.75
2023-02-27T00:15:20.806Z,66642.25
2023-02-27T00:17:48.160Z,66639.13
2023-02-27T00:20:16.336Z,66641.69
2023-02-27T00:22:44.446Z,66642.81
2023-02-27T00:25:12.204Z,66601.63
2023-02-27T00:27:39.886Z,66646.72
2023-02-27T00:30:08.108Z,66647.84
2023-02-27T00:32:36.836Z,66647.72
2023-02-27T00:35:05.091Z,66657.56
2023-02-27T00:37:32.915Z,66657.78
2023-02-27T00:40:01.083Z,66665.19
2023-02-27T00:42:28.751Z,66664.63
2023-02-27T00:44:56.008Z,66660.94
2023-02-27T00:47:23.076Z,66661.81
2023-02-27T00:49:50.235Z,66662.59
2023-02-27T00:52:17.271Z,66661.47
2023-02-27T00:54:44.622Z,66660.16
2023-02-27T00:57:11.762Z,66613.69
2023-02-27T00:59:41.203Z,66648.63
2023-02-27T01:02:08.401Z,66651.06
2023-02-27T01:04:35.554Z,66605.53
2023-02-27T01:07:02.815Z,66651.22
2023-02-27T01:09:30.322Z,66649.19
2023-02-27T01:11:57.771Z,66650.50
2023-02-27T01:14:25.314Z,66650.63
2023-02-27T01:16:52.713Z,66644.47
2023-02-27T01:19:19.937Z,66655.31
2023-02-27T01:21:47.079Z,66651.41
2023-02-27T01:24:14.179Z,66648.06
2023-02-27T01:26:41.373Z,66648.06
2023-02-27T01:29:10.116Z,66636.31
2023-02-27T01:31:39.375Z,66631.50
2023-02-27T01:34:06.656Z,66628.81
2023-02-27T01:36:33.753Z,66633.19
2023-02-27T01:39:00.870Z,66641.13
2023-02-27T01:41:29.201Z,66641.13
2023-02-27T01:43:59.555Z,66649.72
2023-02-27T01:46:27.540Z,66648.63
2023-02-27T01:49:00.738Z,66654.19
2023-02-27T01:51:31.966Z,66655.88
2023-02-27T01:54:02.853Z,66605.53
2023-02-27T01:56:31.229Z,66646.94
2023-02-27T01:59:00.357Z,66644.72
2023-02-27T02:01:27.995Z,66644.47
2023-02-27T02:04:00.313Z,66637.78
2023-02-27T02:06:34.415Z,66583.75
2023-02-27T02:09:02.482Z,66629.38
2023-02-27T02:11:29.702Z,66619.53
2023-02-27T02:13:59.209Z,66619.53
2023-02-27T02:16:29.582Z,66580.72
2023-02-27T02:18:59.608Z,66614.84
2023-02-27T02:21:37.445Z,66613.38
2023-02-27T02:24:04.592Z,66622.34
2023-02-27T02:26:52.076Z,66626.78
2023-02-27T02:29:32.645Z,66627.34
2023-02-27T02:32:11.882Z,66623.78
2023-02-27T02:34:40.220Z,66570.88
2023-02-27T02:37:22.606Z,66615.97
2023-02-27T02:40:19.184Z,66600.75
2023-02-27T02:42:49.756Z,66608.00
2023-02-27T02:45:35.617Z,66613.16
2023-02-27T02:48:04.816Z,66570.88
2023-02-27T02:50:50.858Z,66626.59
2023-02-27T02:53:37.721Z,66630.72
2023-02-27T02:56:10.245Z,66636.53
2023-02-27T02:58:46.381Z,66643.25
2023-02-27T03:01:26.699Z,66603.31
2023-02-27T03:04:17.596Z,66643.78
2023-02-27T03:06:52.624Z,66646.38
2023-02-27T03:09:20.560Z,66643.59
2023-02-27T03:11:49.659Z,66638.78
2023-02-27T03:14:31.720Z,66642.81
2023-02-27T03:17:02.433Z,66638.53
2023-02-27T03:19:53.503Z,66634.63
2023-02-27T03:22:24.228Z,66631.06
2023-02-27T03:24:53.443Z,66583.75
2023-02-27T03:27:22.038Z,66633.84
2023-02-27T03:29:56.814Z,66633.84
2023-02-27T03:32:43.184Z,66637.44
2023-02-27T03:35:11.223Z,66648.41
2023-02-27T03:37:45.335Z,66649.19
2023-02-27T03:40:37.618Z,66609.78
2023-02-27T03:43:12.625Z,66667.97
2023-02-27T03:45:55.438Z,66661.47
2023-02-27T03:48:22.860Z,66663.28
2023-02-27T03:50:50.148Z,66665.19
2023-02-27T03:53:28.463Z,66656.47
2023-02-27T03:55:57.494Z,66659.59
2023-02-27T03:58:25.005Z,66655.56
2023-02-27T04:00:52.162Z,66653.44
2023-02-27T04:03:19.307Z,66646.72
2023-02-27T04:05:46.653Z,66603.31
2023-02-27T04:08:29.552Z,66654.53
2023-02-27T04:10:56.747Z,66658.47
2023-02-27T04:13:35.267Z,66659.59
2023-02-27T04:16:05.565Z,66662.59
2023-02-27T04:18:40.847Z,66659.78
2023-02-27T04:21:07.905Z,66663.38
2023-02-27T04:23:35.000Z,66659.25
2023-02-27T04:26:19.808Z,66659.59
2023-02-27T04:28:50.042Z,66656.47
2023-02-27T04:31:29.374Z,66611.13
2023-02-27T04:34:03.020Z,66663.72
2023-02-27T04:36:33.152Z,66665.41
2023-02-27T04:39:10.882Z,66666.19
2023-02-27T04:41:46.478Z,66667.06
2023-02-27T04:44:14.548Z,66668.53
2023-02-27T04:46:43.136Z,66615.63
2023-02-27T04:49:15.966Z,66661.47
2023-02-27T04:51:47.176Z,66664.28
2023-02-27T04:54:17.496Z,66667.31
2023-02-27T04:56:49.622Z,66681.41
2023-02-27T04:59:19.471Z,66682.41
2023-02-27T05:01:59.494Z,66685.44
2023-02-27T05:04:29.900Z,66710.16
2023-02-27T05:06:58.826Z,66707.38
2023-02-27T05:09:32.842Z,66704.03
2023-02-27T05:12:03.090Z,66704.03
2023-02-27T05:14:30.425Z,66703.66
2023-02-27T05:17:09.275Z,66711.06
2023-02-27T05:19:39.266Z,66702.53
2023-02-27T05:22:06.407Z,66696.41
2023-02-27T05:24:44.355Z,66697.84
2023-02-27T05:27:34.933Z,66705.47
2023-02-27T05:30:06.025Z,66702.19
2023-02-27T05:32:53.801Z,66703.44
2023-02-27T05:35:31.667Z,66705.69
2023-02-27T05:38:04.091Z,66697.28
2023-02-27T05:40:33.324Z,66703.78
2023-02-27T05:43:04.639Z,66696.16
2023-02-27T05:45:34.720Z,66681.06
2023-02-27T05:48:04.809Z,66685.91
2023-02-27T05:50:34.038Z,66681.97
2023-02-27T05:53:03.350Z,66687.00
2023-02-27T05:55:34.245Z,66677.16
2023-02-27T05:58:13.056Z,66669.31
2023-02-27T06:00:46.385Z,66666.72
2023-02-27T06:03:14.042Z,66622.88
2023-02-27T06:05:42.669Z,66669.53
2023-02-27T06:08:10.427Z,66675.47
2023-02-27T06:10:38.120Z,66676.81
2023-02-27T06:13:05.246Z,66687.00
2023-02-27T06:15:32.339Z,66687.78
2023-02-27T06:17:59.451Z,66687.22
2023-02-27T06:20:26.756Z,66704.03
2023-02-27T06:22:53.933Z,66736.25
2023-02-27T06:25:22.157Z,66753.84
2023-02-27T06:27:49.422Z,66750.69
2023-02-27T06:30:16.787Z,66757.19
2023-02-27T06:32:43.902Z,66756.84
2023-02-27T06:35:11.383Z,66754.94
2023-02-27T06:37:38.707Z,66767.84
2023-02-27T06:40:08.326Z,66773.97
2023-02-27T06:42:35.436Z,66772.88
2023-02-27T06:45:02.512Z,66782.94
2023-02-27T06:47:29.639Z,66782.59
2023-02-27T06:49:56.738Z,66778.81
2023-02-27T06:52:23.940Z,66770.63
2023-02-27T06:54:50.994Z,66765.03
2023-02-27T06:57:18.034Z,66748.44
2023-02-27T06:59:45.367Z,66744.31
2023-02-27T07:02:13.671Z,66740.59
2023-02-27T07:04:40.911Z,66751.03
2023-02-27T07:07:34.860Z,66752.72
2023-02-27T07:09:55.439Z,66754.03
2023-02-27T07:12:22.608Z,66762.78
2023-02-27T07:14:49.686Z,66775.13
2023-02-27T07:17:17.013Z,66786.88
2023-02-27T07:19:44.167Z,66792.69
2023-02-27T07:22:11.313Z,66794.38
2023-02-27T07:24:38.450Z,66816.91
2023-02-27T07:27:05.591Z,66823.06
2023-02-27T07:29:32.748Z,66839.31
2023-02-27T07:32:01.613Z,66835.81
2023-02-27T07:34:29.365Z,66849.41
2023-02-27T07:36:56.524Z,66843.47
2023-02-27T07:39:23.794Z,66841.97
2023-02-27T07:41:50.982Z,66846.47
2023-02-27T07:44:18.267Z,66852.41
2023-02-27T07:46:47.555Z,66848.72
2023-02-27T07:49:14.690Z,66851.31
2023-02-27T07:51:41.817Z,66855.97
2023-02-27T07:54:08.988Z,66863.06
2023-02-27T07:56:39.305Z,66830.28
2023-02-27T07:59:06.694Z,66885.69
2023-02-27T08:01:33.813Z,66892.63
2023-02-27T08:04:00.897Z,66890.22
2023-02-27T08:06:28.461Z,66962.88
2023-02-27T08:08:55.811Z,66976.88
2023-02-27T08:11:22.914Z,66975.78
2023-02-27T08:14:05.656Z,66976.88
2023-02-27T08:16:33.659Z,66970.16
2023-02-27T08:19:01.123Z,66964.19
2023-02-27T08:21:28.930Z,66976.31
2023-02-27T08:23:56.288Z,66979.47
2023-02-27T08:26:23.727Z,66992.03
2023-02-27T08:28:51.355Z,67008.09
2023-02-27T08:31:18.511Z,67006.97
2023-02-27T08:33:45.642Z,67012.78
2023-02-27T08:36:12.840Z,67031.88
2023-02-27T08:38:40.008Z,67035.25
2023-02-27T08:41:07.196Z,67035.25
2023-02-27T08:43:34.339Z,67045.91
2023-02-27T08:46:01.522Z,67042.75
2023-02-27T08:48:28.952Z,67061.41
2023-02-27T08:50:57.840Z,67056.78
2023-02-27T08:53:25.325Z,67074.16
2023-02-27T08:55:53.430Z,67103.38
2023-02-27T08:58:20.763Z,67152.59
2023-02-27T09:00:47.880Z,67185.38
2023-02-27T09:03:15.188Z,67225.63
2023-02-27T09:05:42.800Z,67239.00
2023-02-27T09:08:10.370Z,67231.25
2023-02-27T09:10:37.816Z,67231.25
2023-02-27T09:13:04.945Z,67217.41
2023-02-27T09:15:34.603Z,67223.75
2023-02-27T09:18:03.361Z,67199.22
2023-02-27T09:20:31.828Z,67189.09
2023-02-27T09:22:59.843Z,67169.66
2023-02-27T09:25:28.294Z,67147.94
2023-02-27T09:27:55.915Z,67140.03
2023-02-27T09:30:23.536Z,67137.84
2023-02-27T09:32:51.145Z,67151.13
2023-02-27T09:35:20.583Z,67162.56
2023-02-27T09:37:49.708Z,67159.97
2023-02-27T09:40:20.109Z,67159.91
2023-02-27T09:42:48.717Z,67149.22
2023-02-27T09:45:24.562Z,67146.97
2023-02-27T09:47:54.203Z,67155.75
2023-02-27T09:50:34.056Z,67159.13
2023-02-27T09:53:01.421Z,67163.59
2023-02-27T09:55:31.640Z,67158.75
2023-02-27T09:58:04.554Z,67145.28
2023-02-27T10:00:34.755Z,67157.44
2023-02-27T10:03:21.128Z,67142.69
2023-02-27T10:06:11.631Z,67121.00
2023-02-27T10:08:56.234Z,67142.69
2023-02-27T10:11:33.225Z,67159.53
2023-02-27T10:14:06.680Z,67161.22
2023-02-27T10:16:34.303Z,67155.53
2023-02-27T10:19:03.302Z,67141.72
2023-02-27T10:21:50.710Z,67123.59
2023-02-27T10:24:29.945Z,67125.06
2023-02-27T10:26:58.544Z,67120.91
2023-02-27T10:29:29.562Z,67129.34
2023-02-27T10:32:02.620Z,67122.47
2023-02-27T10:34:31.080Z,67121.69
2023-02-27T10:37:03.808Z,67123.94
2023-02-27T10:39:32.355Z,67132.16
2023-02-27T10:42:03.177Z,67128.44
2023-02-27T10:44:31.674Z,67135.53
2023-02-27T10:46:58.887Z,67145.09
2023-02-27T10:49:26.604Z,67154.41
2023-02-27T10:52:09.161Z,67143.59
2023-02-27T10:54:37.345Z,67166.28
2023-02-27T10:57:07.177Z,67171.34
2023-02-27T10:59:39.240Z,67196.63
2023-02-27T11:02:21.014Z,67223.94
2023-02-27T11:04:55.982Z,67211.44
2023-02-27T11:07:27.869Z,67192.69
2023-02-27T11:10:02.535Z,67194.38
2023-02-27T11:12:31.664Z,67188.75
2023-02-27T11:15:04.077Z,67218.53
2023-02-27T11:17:32.981Z,67266.47
2023-02-27T11:20:01.387Z,67284.09
2023-02-27T11:22:29.908Z,67301.75
2023-02-27T11:25:15.789Z,67317.50
2023-02-27T11:27:42.890Z,67356.66
2023-02-27T11:30:27.011Z,67378.63
2023-02-27T11:32:56.911Z,67343.38
2023-02-27T11:35:31.740Z,67344.13
2023-02-27T11:38:03.642Z,67355.97
2023-02-27T11:40:32.193Z,67344.66
2023-02-27T11:43:05.224Z,67359.13
2023-02-27T11:46:14.694Z,67366.81
2023-02-27T11:48:24.298Z,67354.63
2023-02-27T11:50:52.162Z,67337.19
2023-02-27T11:53:31.328Z,67310.75
2023-02-27T11:56:01.089Z,67274.56
2023-02-27T11:58:30.887Z,67257.69
2023-02-27T12:01:06.612Z,67233.31
2023-02-27T12:03:52.626Z,67211.38
2023-02-27T12:06:21.809Z,67194.38
2023-02-27T12:08:48.868Z,67195.28
2023-02-27T12:11:28.227Z,67182.03
2023-02-27T12:14:02.522Z,67190.25
2023-02-27T12:16:42.462Z,67200.91
2023-02-27T12:19:12.806Z,67209.00
2023-02-27T12:21:41.877Z,67226.19
2023-02-27T12:24:19.128Z,67232.16
2023-02-27T12:26:47.749Z,67213.47
2023-02-27T12:29:26.070Z,67206.75
2023-02-27T12:31:56.944Z,67188.75
2023-02-27T12:34:30.614Z,67181.25
2023-02-27T12:37:03.661Z,67189.31
2023-02-27T12:39:32.221Z,67179.75
2023-02-27T12:42:17.696Z,67169.09
2023-02-27T12:44:45.007Z,67167.34
2023-02-27T12:47:18.115Z,67157.84
2023-02-27T12:49:53.231Z,67156.88
2023-02-27T12:52:39.283Z,67155.97
2023-02-27T12:55:10.347Z,67160.66
2023-02-27T12:57:57.692Z,67161.22
2023-02-27T13:00:44.553Z,67164.94
2023-02-27T13:03:22.364Z,67170.78
2023-02-27T13:06:17.506Z,67157.84
2023-02-27T13:09:08.959Z,67172.59
2023-02-27T13:11:59.481Z,67187.63
2023-02-27T13:14:29.704Z,67222.47
2023-02-27T13:17:04.311Z,67234.63
2023-02-27T13:19:39.727Z,67249.81
2023-02-27T13:22:09.862Z,67236.31
2023-02-27T13:24:39.170Z,67278.69
2023-02-27T13:27:15.409Z,67305.50
2023-02-27T13:29:47.751Z,67316.53
2023-02-27T13:32:18.111Z,67321.44
2023-02-27T13:34:52.573Z,67329.09
2023-02-27T13:37:19.728Z,67323.34
2023-02-27T13:39:53.767Z,67329.31
2023-02-27T13:42:27.273Z,67309.63
2023-02-27T13:44:58.397Z,67303.78
2023-02-27T13:47:47.347Z,67310.75
2023-02-27T13:50:17.557Z,67295.34
2023-02-27T13:52:45.628Z,67290.50
2023-02-27T13:55:24.755Z,67288.06
2023-02-27T13:57:53.551Z,67283.19
2023-02-27T14:00:23.101Z,67268.22
2023-02-27T14:02:59.823Z,67261.41
2023-02-27T14:05:33.404Z,67227.53
2023-02-27T14:08:00.529Z,67235.56
2023-02-27T14:10:28.908Z,67236.88
2023-02-27T14:12:57.750Z,67243.97
2023-02-27T14:15:24.878Z,67252.84
2023-02-27T14:18:09.623Z,67270.97
2023-02-27T14:20:41.473Z,67283.75
2023-02-27T14:23:17.703Z,67283.53
2023-02-27T14:25:52.009Z,67290.84
2023-02-27T14:28:30.460Z,67274.56
2023-02-27T14:31:03.145Z,67270.09
2023-02-27T14:33:40.623Z,67290.84
2023-02-27T14:36:09.634Z,67269.69
2023-02-27T14:38:38.662Z,67253.59
2023-02-27T14:41:15.041Z,67233.16
2023-02-27T14:43:55.077Z,67179.72
2023-02-27T14:46:24.755Z,67216.84
2023-02-27T14:48:56.103Z,67222.63
2023-02-27T14:51:24.335Z,67217.78
2023-02-27T14:53:59.459Z,67230.13
2023-02-27T14:56:27.031Z,67232.16
2023-02-27T14:59:04.376Z,67228.66
2023-02-27T15:01:35.366Z,67230.34
2023-02-27T15:04:04.328Z,67242.66
2023-02-27T15:10:41.160Z,67210.47
2023-02-27T15:13:19.842Z,67207.84
2023-02-27T15:15:48.797Z,67205.97
2023-02-27T15:18:16.186Z,67209.13
2023-02-27T15:20:43.286Z,67182.94
2023-02-27T15:23:26.559Z,67179.91
2023-02-27T15:25:57.644Z,67167.53
2023-02-27T15:28:34.956Z,67153.16
2023-02-27T15:31:02.891Z,67136.28
2023-02-27T15:33:35.119Z,67138.56
2023-02-27T15:36:02.806Z,67134.63
2023-02-27T15:38:31.637Z,67111.25
2023-02-27T15:41:13.791Z,67110.47
2023-02-27T15:43:43.303Z,67113.84
2023-02-27T15:46:10.692Z,67096.28
2023-02-27T15:48:37.886Z,67093.41
2023-02-27T15:51:05.289Z,67078.44
2023-02-27T15:53:34.206Z,67070.81
2023-02-27T15:56:06.190Z,67061.28
2023-02-27T15:58:35.662Z,67062.38
2023-02-27T16:01:14.374Z,67050.03
2023-02-27T16:03:46.494Z,67056.34
2023-02-27T16:06:19.596Z,67057.13
2023-02-27T16:08:51.122Z,67049.50
2023-02-27T16:11:22.832Z,67058.25
2023-02-27T16:13:50.000Z,67048.91
2023-02-27T16:16:20.263Z,67052.63
2023-02-27T16:18:48.957Z,67053.97
2023-02-27T16:21:18.358Z,67055.31
2023-02-27T16:23:45.863Z,67056.22
2023-02-27T16:26:33.414Z,67065.34
2023-02-27T16:29:03.841Z,67058.44
2023-02-27T16:31:39.049Z,67057.69
2023-02-27T16:34:15.408Z,67055.66
2023-02-27T16:36:43.275Z,67054.53
2023-02-27T16:39:13.033Z,67063.28
2023-02-27T16:41:40.179Z,67077.91
2023-02-27T16:44:07.355Z,67085.97
2023-02-27T16:46:34.851Z,67092.16
2023-02-27T16:49:14.252Z,67108.78
2023-02-27T16:51:46.192Z,67100.56
2023-02-27T16:54:14.206Z,67097.53
2023-02-27T16:56:42.080Z,67099.59
2023-02-27T16:59:24.120Z,67091.94
2023-02-27T17:01:51.386Z,67092.84
2023-02-27T17:04:25.590Z,67096.06
2023-02-27T17:06:53.970Z,67094.75
2023-02-27T17:09:21.635Z,67088.56
2023-02-27T17:11:49.268Z,67076.22
2023-02-27T17:14:17.152Z,67073.97
2023-02-27T17:16:44.788Z,67076.91
2023-02-27T17:19:12.080Z,67074.16
2023-02-27T17:21:39.245Z,67071.16
2023-02-27T17:24:06.495Z,67060.50
2023-02-27T17:26:34.463Z,67062.75
2023-02-27T17:29:02.781Z,67049.50
2023-02-27T17:31:30.355Z,67050.41
2023-02-27T17:33:57.660Z,67051.16
2023-02-27T17:36:25.066Z,67058.81
2023-02-27T17:39:00.771Z,67052.84
2023-02-27T17:41:28.958Z,67058.59
2023-02-27T17:43:56.883Z,67056.56
2023-02-27T17:46:25.477Z,67059.38
2023-02-27T17:48:54.177Z,67045.34
2023-02-27T17:51:22.038Z,67038.59
2023-02-27T17:53:49.271Z,67034.66
2023-02-27T17:56:16.536Z,67036.00
2023-02-27T17:58:45.630Z,67034.09
2023-02-27T18:01:14.397Z,67040.84
2023-02-27T18:03:41.741Z,67048.72
2023-02-27T18:06:08.867Z,67052.09
2023-02-27T18:08:36.528Z,67051.84
2023-02-27T18:11:04.709Z,67045.69
2023-02-27T18:13:32.075Z,67048.28
2023-02-27T18:15:59.186Z,67047.03
2023-02-27T18:18:26.257Z,67041.63
2023-02-27T18:21:01.238Z,67041.75
2023-02-27T18:23:28.958Z,67040.28
2023-02-27T18:25:56.989Z,67028.16
2023-02-27T18:28:24.508Z,67034.09
2023-02-27T18:30:52.138Z,67035.25
2023-02-27T18:33:29.130Z,67032.28
2023-02-27T18:35:57.738Z,67032.84
2023-02-27T18:38:24.819Z,67033.56
2023-02-27T18:40:52.147Z,67040.50
2023-02-27T18:43:19.758Z,67033.00
2023-02-27T18:45:50.538Z,67039.38
2023-02-27T18:48:20.949Z,67034.34
2023-02-27T18:50:48.390Z,67033.00
2023-02-27T18:53:15.544Z,67035.03
2023-02-27T18:55:42.896Z,67024.91
2023-02-27T18:58:10.150Z,67024.78
2023-02-27T19:00:37.866Z,67011.31
2023-02-27T19:03:05.626Z,67002.34
2023-02-27T19:05:32.915Z,67000.78
2023-02-27T19:09:02.288Z,66994.84
2023-02-27T19:11:33.889Z,67000.22
2023-02-27T19:14:05.455Z,66988.88
2023-02-27T19:16:33.985Z,66993.91
2023-02-27T19:19:03.157Z,66997.63
2023-02-27T19:21:31.536Z,66991.47
2023-02-27T19:23:58.876Z,66974.28
2023-02-27T19:26:26.729Z,66975.41
2023-02-27T19:28:55.191Z,66980.59
2023-02-27T19:31:23.751Z,66968.47
2023-02-27T19:33:51.466Z,66966.22
2023-02-27T19:36:21.032Z,66957.13
2023-02-27T19:38:48.928Z,66960.81
2023-02-27T19:41:17.567Z,66960.63
2023-02-27T19:43:44.902Z,66960.97
2023-02-27T19:46:13.700Z,66962.63
2023-02-27T19:48:41.330Z,66953.31
2023-02-27T19:51:09.687Z,66956.47
2023-02-27T19:53:38.288Z,66947.72
2023-02-27T19:56:26.837Z,66901.06
2023-02-27T19:58:54.583Z,66925.06
2023-02-27T20:01:21.692Z,66905.66
2023-02-27T20:03:48.859Z,66897.81
2023-02-27T20:06:17.598Z,66899.84
2023-02-27T20:08:44.881Z,66903.31
2023-02-27T20:11:13.626Z,66900.28
2023-02-27T20:13:41.021Z,66907.34
2023-02-27T20:16:08.873Z,66916.88
2023-02-27T20:18:36.561Z,66909.38
2023-02-27T20:21:05.930Z,66903.44
2023-02-27T20:23:34.301Z,66901.75
2023-02-27T20:26:01.914Z,66904.31
2023-02-27T20:28:29.114Z,66906.78
2023-02-27T20:30:56.385Z,66920.56
2023-02-27T20:33:24.372Z,66919.34
2023-02-27T20:35:51.990Z,66903.06
2023-02-27T20:38:21.438Z,66902.53
2023-02-27T20:40:48.941Z,66912.06
2023-02-27T20:43:16.051Z,66920.03
2023-02-27T20:45:43.117Z,66909.81
2023-02-27T20:48:10.210Z,66918.75
2023-02-27T20:50:38.395Z,66915.75
2023-02-27T20:53:06.311Z,66927.88
2023-02-27T20:55:36.162Z,66939.66
2023-02-27T20:58:04.145Z,66935.03
2023-02-27T21:00:31.286Z,66941.19
2023-02-27T21:03:01.135Z,66946.38
2023-02-27T21:05:28.703Z,66935.50
2023-02-27T21:07:55.889Z,66934.25
2023-02-27T21:10:23.780Z,66945.25
2023-02-27T21:12:51.589Z,66935.59
2023-02-27T21:15:19.103Z,66938.53
2023-02-27T21:17:46.479Z,66931.25
2023-02-27T21:20:13.909Z,66933.47
2023-02-27T21:22:41.616Z,66952.00
2023-02-27T21:25:08.808Z,66950.88
2023-02-27T21:27:35.974Z,66940.97
2023-02-27T21:30:03.620Z,66942.66
2023-02-27T21:32:30.760Z,66953.69
2023-02-27T21:34:57.930Z,66977.44
2023-02-27T21:37:25.952Z,66987.31
2023-02-27T21:39:55.536Z,66974.44
2023-02-27T21:42:23.011Z,66974.88
2023-02-27T21:44:50.095Z,66979.69
2023-02-27T21:47:19.571Z,66974.09
2023-02-27T21:49:46.658Z,66977.09
2023-02-27T21:52:13.856Z,66931.13
2023-02-27T21:54:41.471Z,66970.34
2023-02-27T21:57:10.246Z,66973.31
2023-02-27T21:59:37.563Z,66973.72
2023-02-27T22:02:05.742Z,66973.19
2023-02-27T22:04:32.767Z,66988.09
2023-02-27T22:06:59.907Z,66992.59
2023-02-27T22:09:27.366Z,66991.81
2023-02-27T22:11:54.572Z,66994.63
2023-02-27T22:14:21.663Z,67008.63
2023-02-27T22:16:48.930Z,67004.38
2023-02-27T22:19:20.048Z,67004.16
2023-02-27T22:21:47.676Z,67011.09
2023-02-27T22:24:22.912Z,67002.34
2023-02-27T22:31:08.961Z,66993.16
2023-02-27T22:33:36.867Z,66985.50
2023-02-27T22:36:12.141Z,66998.53
2023-02-27T22:38:39.320Z,67000.44
2023-02-27T22:41:11.152Z,67008.31
2023-02-27T22:43:39.828Z,67001.00
2023-02-27T22:46:07.421Z,67006.63
2023-02-27T22:48:35.129Z,67004.94
2023-02-27T22:51:04.485Z,67006.19
2023-02-27T22:53:33.167Z,67001.22
2023-02-27T22:56:00.225Z,66987.97
2023-02-27T22:58:27.621Z,66992.59
2023-02-27T23:00:54.826Z,66983.25
2023-02-27T23:03:21.919Z,66988.09
2023-02-27T23:05:49.097Z,66974.44
2023-02-27T23:08:16.761Z,66960.28
2023-02-27T23:10:44.013Z,66954.47
2023-02-27T23:13:11.176Z,66946.81
2023-02-27T23:15:39.062Z,66928.09
2023-02-27T23:18:07.158Z,66908.69
2023-02-27T23:20:36.285Z,66916.31
2023-02-27T23:23:05.455Z,66937.63
2023-02-27T23:25:33.844Z,66946.81
2023-02-27T23:28:01.372Z,66945.69
2023-02-27T23:30:28.831Z,66950.88
2023-02-27T23:32:57.310Z,66950.31
2023-02-27T23:35:24.873Z,66948.63
2023-02-27T23:37:52.731Z,66944.69
2023-02-27T23:40:20.584Z,66941.19
2023-02-27T23:42:48.052Z,66951.28
2023-02-27T23:45:24.433Z,66965.31
2023-02-27T23:47:53.195Z,66958.72
2023-02-27T23:50:21.398Z,66970.50
2023-02-27T23:52:49.457Z,66983.63
2023-02-27T23:55:17.623Z,66996.31
2023-02-27T23:57:45.098Z,67003.25
